sensor_id;sensor_type;location;lat;lon;timestamp;temperature;humidity
32428;DHT22;18882;50.952;4.366;2023-01-24T00:02:25;2.90;99.90
32428;DHT22;18882;50.952;4.366;2023-01-24T00:04:51;2.80;99.90
32428;DHT22;18882;50.952;4.366;2023-01-24T00:07:16;2.90;99.90
32428;DHT22;18882;50.952;4.366;2023-01-24T00:09:42;2.90;99.90
32428;DHT22;18882;50.952;4.366;2023-01-24T00:12:08;2.80;99.90
32428;DHT22;18882;50.952;4.366;2023-01-24T00:14:33;2.80;99.90
32428;DHT22;18882;50.952;4.366;2023-01-24T00:16:59;2.90;99.90
32428;DHT22;18882;50.952;4.366;2023-01-24T00:19:24;2.80;99.90
32428;DHT22;18882;50.952;4.366;2023-01-24T00:21:50;2.90;99.90
32428;DHT22;18882;50.952;4.366;2023-01-24T00:24:16;2.90;99.90
32428;DHT22;18882;50.952;4.366;2023-01-24T00:26:41;2.90;99.90
32428;DHT22;18882;50.952;4.366;2023-01-24T00:29:07;2.90;99.90
32428;DHT22;18882;50.952;4.366;2023-01-24T00:31:32;2.90;99.90
32428;DHT22;18882;50.952;4.366;2023-01-24T00:33:58;2.80;99.90
32428;DHT22;18882;50.952;4.366;2023-01-24T00:36:24;2.80;99.90
32428;DHT22;18882;50.952;4.366;2023-01-24T00:38:49;2.90;99.90
32428;DHT22;18882;50.952;4.366;2023-01-24T00:41:15;2.80;99.90
32428;DHT22;18882;50.952;4.366;2023-01-24T00:43:40;2.80;99.90
32428;DHT22;18882;50.952;4.366;2023-01-24T00:46:07;2.80;99.90
32428;DHT22;18882;50.952;4.366;2023-01-24T00:48:34;2.80;99.90
32428;DHT22;18882;50.952;4.366;2023-01-24T00:50:59;2.80;99.90
32428;DHT22;18882;50.952;4.366;2023-01-24T00:53:25;2.80;99.90
32428;DHT22;18882;50.952;4.366;2023-01-24T00:55:52;2.90;99.90
32428;DHT22;18882;50.952;4.366;2023-01-24T00:58:20;2.80;99.90
32428;DHT22;18882;50.952;4.366;2023-01-24T01:00:46;2.80;99.90
32428;DHT22;18882;50.952;4.366;2023-01-24T01:03:15;2.80;99.90
32428;DHT22;18882;50.952;4.366;2023-01-24T01:05:42;2.80;99.90
32428;DHT22;18882;50.952;4.366;2023-01-24T01:08:08;2.80;99.90
32428;DHT22;18882;50.952;4.366;2023-01-24T01:10:35;2.70;99.90
32428;DHT22;18882;50.952;4.366;2023-01-24T01:13:00;2.80;99.90
32428;DHT22;18882;50.952;4.366;2023-01-24T01:15:26;2.70;99.90
32428;DHT22;18882;50.952;4.366;2023-01-24T01:17:52;2.80;99.90
32428;DHT22;18882;50.952;4.366;2023-01-24T01:20:18;2.80;99.90
32428;DHT22;18882;50.952;4.366;2023-01-24T01:22:44;2.70;99.90
32428;DHT22;18882;50.952;4.366;2023-01-24T01:25:09;2.80;99.90
32428;DHT22;18882;50.952;4.366;2023-01-24T01:27:35;2.80;99.90
32428;DHT22;18882;50.952;4.366;2023-01-24T01:30:01;2.90;99.90
32428;DHT22;18882;50.952;4.366;2023-01-24T01:32:26;2.90;99.90
32428;DHT22;18882;50.952;4.366;2023-01-24T01:34:52;2.80;99.90
32428;DHT22;18882;50.952;4.366;2023-01-24T01:37:17;2.70;99.90
32428;DHT22;18882;50.952;4.366;2023-01-24T01:39:43;2.70;99.90
32428;DHT22;18882;50.952;4.366;2023-01-24T01:42:09;2.80;99.90
32428;DHT22;18882;50.952;4.366;2023-01-24T01:44:34;2.70;99.90
32428;DHT22;18882;50.952;4.366;2023-01-24T01:47:18;2.80;99.90
32428;DHT22;18882;50.952;4.366;2023-01-24T01:52:19;2.80;99.90
32428;DHT22;18882;50.952;4.366;2023-01-24T01:54:46;2.70;99.90
32428;DHT22;18882;50.952;4.366;2023-01-24T01:57:20;2.80;99.90
32428;DHT22;18882;50.952;4.366;2023-01-24T01:59:50;2.70;99.90
32428;DHT22;18882;50.952;4.366;2023-01-24T02:02:19;2.80;99.90
32428;DHT22;18882;50.952;4.366;2023-01-24T02:04:48;2.80;99.90
32428;DHT22;18882;50.952;4.366;2023-01-24T02:07:26;2.80;99.90
32428;DHT22;18882;50.952;4.366;2023-01-24T02:09:55;2.80;99.90
32428;DHT22;18882;50.952;4.366;2023-01-24T02:12:24;2.80;99.90
32428;DHT22;18882;50.952;4.366;2023-01-24T02:15:17;2.70;99.90
32428;DHT22;18882;50.952;4.366;2023-01-24T02:18:02;2.80;99.90
32428;DHT22;18882;50.952;4.366;2023-01-24T02:20:41;2.80;99.90
32428;DHT22;18882;50.952;4.366;2023-01-24T02:23:39;2.80;99.90
32428;DHT22;18882;50.952;4.366;2023-01-24T02:26:15;2.80;99.90
32428;DHT22;18882;50.952;4.366;2023-01-24T02:28:58;2.80;99.90
32428;DHT22;18882;50.952;4.366;2023-01-24T02:31:24;2.80;99.90
32428;DHT22;18882;50.952;4.366;2023-01-24T02:33:50;2.90;99.90
32428;DHT22;18882;50.952;4.366;2023-01-24T02:36:24;2.90;99.90
32428;DHT22;18882;50.952;4.366;2023-01-24T02:39:12;2.90;99.90
32428;DHT22;18882;50.952;4.366;2023-01-24T02:44:26;2.90;99.90
32428;DHT22;18882;50.952;4.366;2023-01-24T02:46:55;2.90;99.90
32428;DHT22;18882;50.952;4.366;2023-01-24T02:49:21;2.90;99.90
32428;DHT22;18882;50.952;4.366;2023-01-24T02:51:46;2.80;99.90
32428;DHT22;18882;50.952;4.366;2023-01-24T02:54:31;2.90;99.90
32428;DHT22;18882;50.952;4.366;2023-01-24T02:56:56;2.90;99.90
32428;DHT22;18882;50.952;4.366;2023-01-24T02:59:40;2.80;99.90
32428;DHT22;18882;50.952;4.366;2023-01-24T03:02:06;2.90;99.90
32428;DHT22;18882;50.952;4.366;2023-01-24T03:04:32;2.80;99.90
32428;DHT22;18882;50.952;4.366;2023-01-24T03:06:57;2.80;99.90
32428;DHT22;18882;50.952;4.366;2023-01-24T03:09:23;2.80;99.90
32428;DHT22;18882;50.952;4.366;2023-01-24T03:12:00;2.80;99.90
32428;DHT22;18882;50.952;4.366;2023-01-24T03:14:45;2.90;99.90
32428;DHT22;18882;50.952;4.366;2023-01-24T03:17:30;2.90;99.90
32428;DHT22;18882;50.952;4.366;2023-01-24T03:20:15;2.90;99.90
32428;DHT22;18882;50.952;4.366;2023-01-24T03:22:59;2.80;99.90
32428;DHT22;18882;50.952;4.366;2023-01-24T03:25:43;2.80;99.90
32428;DHT22;18882;50.952;4.366;2023-01-24T03:28:27;2.80;99.90
32428;DHT22;18882;50.952;4.366;2023-01-24T03:31:12;2.80;99.90
32428;DHT22;18882;50.952;4.366;2023-01-24T03:33:55;2.80;99.90
32428;DHT22;18882;50.952;4.366;2023-01-24T03:36:40;2.80;99.90
32428;DHT22;18882;50.952;4.366;2023-01-24T03:39:06;2.80;99.90
32428;DHT22;18882;50.952;4.366;2023-01-24T03:41:50;2.80;99.90
32428;DHT22;18882;50.952;4.366;2023-01-24T03:44:16;3.00;99.90
32428;DHT22;18882;50.952;4.366;2023-01-24T03:46:41;3.00;99.90
32428;DHT22;18882;50.952;4.366;2023-01-24T03:49:07;3.10;99.90
32428;DHT22;18882;50.952;4.366;2023-01-24T03:51:34;3.00;99.90
32428;DHT22;18882;50.952;4.366;2023-01-24T03:54:18;2.90;99.90
32428;DHT22;18882;50.952;4.366;2023-01-24T03:56:43;2.90;99.90
32428;DHT22;18882;50.952;4.366;2023-01-24T03:59:09;2.80;99.90
32428;DHT22;18882;50.952;4.366;2023-01-24T04:01:35;2.80;99.90
32428;DHT22;18882;50.952;4.366;2023-01-24T04:04:00;2.80;99.90
32428;DHT22;18882;50.952;4.366;2023-01-24T04:06:26;2.80;99.90
32428;DHT22;18882;50.952;4.366;2023-01-24T04:08:52;2.80;99.90
32428;DHT22;18882;50.952;4.366;2023-01-24T04:11:18;2.80;99.90
32428;DHT22;18882;50.952;4.366;2023-01-24T04:13:43;2.80;99.90
32428;DHT22;18882;50.952;4.366;2023-01-24T04:16:09;2.80;99.90
32428;DHT22;18882;50.952;4.366;2023-01-24T04:18:35;2.80;99.90
32428;DHT22;18882;50.952;4.366;2023-01-24T04:21:04;2.80;99.90
32428;DHT22;18882;50.952;4.366;2023-01-24T04:23:30;2.80;99.90
32428;DHT22;18882;50.952;4.366;2023-01-24T04:25:56;2.80;99.90
32428;DHT22;18882;50.952;4.366;2023-01-24T04:28:26;2.80;99.90
32428;DHT22;18882;50.952;4.366;2023-01-24T04:30:58;2.80;99.90
32428;DHT22;18882;50.952;4.366;2023-01-24T04:33:25;2.80;99.90
32428;DHT22;18882;50.952;4.366;2023-01-24T04:35:51;2.90;99.90
32428;DHT22;18882;50.952;4.366;2023-01-24T04:38:16;2.90;99.90
32428;DHT22;18882;50.952;4.366;2023-01-24T04:40:42;2.80;99.90
32428;DHT22;18882;50.952;4.366;2023-01-24T04:43:08;2.80;99.90
32428;DHT22;18882;50.952;4.366;2023-01-24T04:45:34;2.80;99.90
32428;DHT22;18882;50.952;4.366;2023-01-24T04:48:00;2.80;99.90
32428;DHT22;18882;50.952;4.366;2023-01-24T04:50:25;2.70;99.90
32428;DHT22;18882;50.952;4.366;2023-01-24T04:52:51;2.70;99.90
32428;DHT22;18882;50.952;4.366;2023-01-24T04:55:17;2.70;99.90
32428;DHT22;18882;50.952;4.366;2023-01-24T04:57:42;2.70;99.90
32428;DHT22;18882;50.952;4.366;2023-01-24T05:00:09;2.70;99.90
32428;DHT22;18882;50.952;4.366;2023-01-24T05:02:35;2.70;99.90
32428;DHT22;18882;50.952;4.366;2023-01-24T05:05:03;2.70;99.90
32428;DHT22;18882;50.952;4.366;2023-01-24T05:07:29;2.70;99.90
32428;DHT22;18882;50.952;4.366;2023-01-24T05:09:54;2.70;99.90
32428;DHT22;18882;50.952;4.366;2023-01-24T05:12:20;2.70;99.90
32428;DHT22;18882;50.952;4.366;2023-01-24T05:14:45;2.60;99.90
32428;DHT22;18882;50.952;4.366;2023-01-24T05:17:11;2.70;99.90
32428;DHT22;18882;50.952;4.366;2023-01-24T05:19:37;2.60;99.90
32428;DHT22;18882;50.952;4.366;2023-01-24T05:22:02;2.70;99.90
32428;DHT22;18882;50.952;4.366;2023-01-24T05:24:28;2.70;99.90
32428;DHT22;18882;50.952;4.366;2023-01-24T05:26:53;2.70;99.90
32428;DHT22;18882;50.952;4.366;2023-01-24T05:29:20;2.70;99.90
32428;DHT22;18882;50.952;4.366;2023-01-24T05:31:46;2.70;99.90
32428;DHT22;18882;50.952;4.366;2023-01-24T05:34:11;2.70;99.90
32428;DHT22;18882;50.952;4.366;2023-01-24T05:36:38;2.60;99.90
32428;DHT22;18882;50.952;4.366;2023-01-24T05:39:04;2.60;99.90
32428;DHT22;18882;50.952;4.366;2023-01-24T05:41:30;2.60;99.90
32428;DHT22;18882;50.952;4.366;2023-01-24T05:43:56;2.70;99.90
32428;DHT22;18882;50.952;4.366;2023-01-24T05:46:22;2.60;99.90
32428;DHT22;18882;50.952;4.366;2023-01-24T05:48:48;2.60;99.90
32428;DHT22;18882;50.952;4.366;2023-01-24T05:51:16;2.60;99.90
32428;DHT22;18882;50.952;4.366;2023-01-24T05:53:43;2.50;99.90
32428;DHT22;18882;50.952;4.366;2023-01-24T05:56:11;2.60;99.90
32428;DHT22;18882;50.952;4.366;2023-01-24T05:58:41;2.50;99.90
32428;DHT22;18882;50.952;4.366;2023-01-24T06:01:12;2.60;99.90
32428;DHT22;18882;50.952;4.366;2023-01-24T06:03:42;2.50;99.90
32428;DHT22;18882;50.952;4.366;2023-01-24T06:06:09;2.60;99.90
32428;DHT22;18882;50.952;4.366;2023-01-24T06:08:36;2.50;99.90
32428;DHT22;18882;50.952;4.366;2023-01-24T06:11:04;2.50;99.90
32428;DHT22;18882;50.952;4.366;2023-01-24T06:13:30;2.50;99.90
32428;DHT22;18882;50.952;4.366;2023-01-24T06:16:08;2.50;99.90
32428;DHT22;18882;50.952;4.366;2023-01-24T06:18:35;2.70;99.90
32428;DHT22;18882;50.952;4.366;2023-01-24T06:21:06;2.60;99.90
32428;DHT22;18882;50.952;4.366;2023-01-24T06:23:32;2.60;99.90
32428;DHT22;18882;50.952;4.366;2023-01-24T06:25:58;2.60;99.90
32428;DHT22;18882;50.952;4.366;2023-01-24T06:28:24;2.50;99.90
32428;DHT22;18882;50.952;4.366;2023-01-24T06:31:26;2.60;99.90
32428;DHT22;18882;50.952;4.366;2023-01-24T06:39:24;2.60;99.90
32428;DHT22;18882;50.952;4.366;2023-01-24T06:41:50;2.60;99.90
32428;DHT22;18882;50.952;4.366;2023-01-24T06:44:16;2.60;99.90
32428;DHT22;18882;50.952;4.366;2023-01-24T06:46:42;2.50;99.90
32428;DHT22;18882;50.952;4.366;2023-01-24T06:49:10;2.50;99.90
32428;DHT22;18882;50.952;4.366;2023-01-24T06:51:36;2.50;99.90
32428;DHT22;18882;50.952;4.366;2023-01-24T06:54:02;2.50;99.90
32428;DHT22;18882;50.952;4.366;2023-01-24T06:56:28;2.50;99.90
32428;DHT22;18882;50.952;4.366;2023-01-24T06:58:53;2.50;99.90
32428;DHT22;18882;50.952;4.366;2023-01-24T07:01:19;2.40;99.90
32428;DHT22;18882;50.952;4.366;2023-01-24T07:03:45;2.40;99.90
32428;DHT22;18882;50.952;4.366;2023-01-24T07:06:10;2.40;99.90
32428;DHT22;18882;50.952;4.366;2023-01-24T07:08:36;2.40;99.90
32428;DHT22;18882;50.952;4.366;2023-01-24T07:11:02;2.40;99.90
32428;DHT22;18882;50.952;4.366;2023-01-24T07:13:27;2.40;99.90
32428;DHT22;18882;50.952;4.366;2023-01-24T07:15:53;2.40;99.90
32428;DHT22;18882;50.952;4.366;2023-01-24T07:18:19;2.40;99.90
32428;DHT22;18882;50.952;4.366;2023-01-24T07:20:46;2.40;99.90
32428;DHT22;18882;50.952;4.366;2023-01-24T07:25:47;2.50;99.90
32428;DHT22;18882;50.952;4.366;2023-01-24T07:28:13;2.50;99.90
32428;DHT22;18882;50.952;4.366;2023-01-24T07:30:39;2.60;99.90
32428;DHT22;18882;50.952;4.366;2023-01-24T07:33:04;2.60;99.90
32428;DHT22;18882;50.952;4.366;2023-01-24T07:35:30;2.60;99.90
32428;DHT22;18882;50.952;4.366;2023-01-24T07:37:56;2.60;99.90
32428;DHT22;18882;50.952;4.366;2023-01-24T07:40:21;2.60;99.90
32428;DHT22;18882;50.952;4.366;2023-01-24T07:42:47;2.60;99.90
32428;DHT22;18882;50.952;4.366;2023-01-24T07:45:12;2.50;99.90
32428;DHT22;18882;50.952;4.366;2023-01-24T07:47:38;2.50;99.90
32428;DHT22;18882;50.952;4.366;2023-01-24T07:50:04;2.50;99.90
32428;DHT22;18882;50.952;4.366;2023-01-24T07:52:30;2.30;99.90
32428;DHT22;18882;50.952;4.366;2023-01-24T07:54:55;2.30;99.90
32428;DHT22;18882;50.952;4.366;2023-01-24T07:57:21;2.30;99.90
32428;DHT22;18882;50.952;4.366;2023-01-24T07:59:46;2.30;99.90
32428;DHT22;18882;50.952;4.366;2023-01-24T08:02:12;2.40;99.90
32428;DHT22;18882;50.952;4.366;2023-01-24T08:04:38;2.30;99.90
32428;DHT22;18882;50.952;4.366;2023-01-24T08:07:04;2.30;99.90
32428;DHT22;18882;50.952;4.366;2023-01-24T08:09:41;2.20;99.90
32428;DHT22;18882;50.952;4.366;2023-01-24T08:12:07;2.20;99.90
32428;DHT22;18882;50.952;4.366;2023-01-24T08:14:33;2.20;99.90
32428;DHT22;18882;50.952;4.366;2023-01-24T08:16:58;2.20;99.90
32428;DHT22;18882;50.952;4.366;2023-01-24T08:19:24;2.30;99.90
32428;DHT22;18882;50.952;4.366;2023-01-24T08:21:50;2.40;99.90
32428;DHT22;18882;50.952;4.366;2023-01-24T08:24:16;2.50;99.90
32428;DHT22;18882;50.952;4.366;2023-01-24T08:26:41;2.50;99.90
32428;DHT22;18882;50.952;4.366;2023-01-24T08:29:07;2.40;99.90
32428;DHT22;18882;50.952;4.366;2023-01-24T08:31:34;2.40;99.90
32428;DHT22;18882;50.952;4.366;2023-01-24T08:34:00;2.40;99.90
32428;DHT22;18882;50.952;4.366;2023-01-24T08:36:25;2.40;99.90
32428;DHT22;18882;50.952;4.366;2023-01-24T08:49:10;2.30;99.90
32428;DHT22;18882;50.952;4.366;2023-01-24T08:51:59;2.50;99.90
32428;DHT22;18882;50.952;4.366;2023-01-24T08:55:23;2.50;99.90
32428;DHT22;18882;50.952;4.366;2023-01-24T08:58:14;2.50;99.90
32428;DHT22;18882;50.952;4.366;2023-01-24T09:01:12;2.50;99.90
32428;DHT22;18882;50.952;4.366;2023-01-24T09:04:20;2.50;99.90
32428;DHT22;18882;50.952;4.366;2023-01-24T09:07:34;2.50;99.90
32428;DHT22;18882;50.952;4.366;2023-01-24T09:10:46;2.50;99.90
32428;DHT22;18882;50.952;4.366;2023-01-24T09:13:46;2.60;99.90
32428;DHT22;18882;50.952;4.366;2023-01-24T09:16:16;2.50;99.90
32428;DHT22;18882;50.952;4.366;2023-01-24T09:18:45;2.60;99.90
32428;DHT22;18882;50.952;4.366;2023-01-24T09:21:13;2.60;99.90
32428;DHT22;18882;50.952;4.366;2023-01-24T09:23:40;2.70;99.90
32428;DHT22;18882;50.952;4.366;2023-01-24T09:26:07;2.70;99.90
32428;DHT22;18882;50.952;4.366;2023-01-24T09:28:35;2.70;99.90
32428;DHT22;18882;50.952;4.366;2023-01-24T09:31:02;2.60;99.90
32428;DHT22;18882;50.952;4.366;2023-01-24T09:33:29;2.90;99.90
32428;DHT22;18882;50.952;4.366;2023-01-24T09:35:58;2.80;99.90
32428;DHT22;18882;50.952;4.366;2023-01-24T09:38:26;2.90;99.90
32428;DHT22;18882;50.952;4.366;2023-01-24T09:41:09;2.80;99.90
32428;DHT22;18882;50.952;4.366;2023-01-24T09:46:36;2.80;99.90
32428;DHT22;18882;50.952;4.366;2023-01-24T09:51:34;2.80;99.90
32428;DHT22;18882;50.952;4.366;2023-01-24T09:54:03;2.80;99.90
32428;DHT22;18882;50.952;4.366;2023-01-24T09:56:49;2.80;99.90
32428;DHT22;18882;50.952;4.366;2023-01-24T09:59:40;2.80;99.90
32428;DHT22;18882;50.952;4.366;2023-01-24T10:02:20;2.90;99.90
32428;DHT22;18882;50.952;4.366;2023-01-24T10:04:57;3.00;99.90
32428;DHT22;18882;50.952;4.366;2023-01-24T10:25:27;2.90;99.90
32428;DHT22;18882;50.952;4.366;2023-01-24T10:28:03;2.80;99.90
32428;DHT22;18882;50.952;4.366;2023-01-24T10:30:33;2.80;99.90
32428;DHT22;18882;50.952;4.366;2023-01-24T10:33:15;2.80;99.90
32428;DHT22;18882;50.952;4.366;2023-01-24T10:36:04;2.80;99.90
32428;DHT22;18882;50.952;4.366;2023-01-24T10:38:32;2.70;99.90
32428;DHT22;18882;50.952;4.366;2023-01-24T10:44:49;2.90;99.90
32428;DHT22;18882;50.952;4.366;2023-01-24T13:36:50;2.90;99.90
32428;DHT22;18882;50.952;4.366;2023-01-24T13:39:38;2.80;99.90
32428;DHT22;18882;50.952;4.366;2023-01-24T13:42:22;3.10;99.90
32428;DHT22;18882;50.952;4.366;2023-01-24T13:44:50;3.10;99.90
32428;DHT22;18882;50.952;4.366;2023-01-24T13:47:33;3.00;99.90
32428;DHT22;18882;50.952;4.366;2023-01-24T13:54:40;3.00;99.90
32428;DHT22;18882;50.952;4.366;2023-01-24T14:01:43;2.80;99.90
32428;DHT22;18882;50.952;4.366;2023-01-24T14:05:33;2.80;99.90
32428;DHT22;18882;50.952;4.366;2023-01-24T14:26:14;2.90;99.90
32428;DHT22;18882;50.952;4.366;2023-01-24T14:47:24;2.80;99.90
32428;DHT22;18882;50.952;4.366;2023-01-24T14:49:52;2.90;99.90
32428;DHT22;18882;50.952;4.366;2023-01-24T14:54:51;3.00;99.90
32428;DHT22;18882;50.952;4.366;2023-01-24T14:57:53;3.10;99.90
32428;DHT22;18882;50.952;4.366;2023-01-24T15:09:11;2.70;99.90
32428;DHT22;18882;50.952;4.366;2023-01-24T15:15:58;2.70;99.90
32428;DHT22;18882;50.952;4.366;2023-01-24T15:19:36;2.70;99.90
32428;DHT22;18882;50.952;4.366;2023-01-24T15:23:15;2.70;99.90
32428;DHT22;18882;50.952;4.366;2023-01-24T15:37:17;2.60;99.90
32428;DHT22;18882;50.952;4.366;2023-01-24T15:54:55;2.60;99.90
32428;DHT22;18882;50.952;4.366;2023-01-24T15:58:40;2.80;99.90
32428;DHT22;18882;50.952;4.366;2023-01-24T16:05:52;3.20;99.90
32428;DHT22;18882;50.952;4.366;2023-01-24T16:12:48;3.20;99.90
32428;DHT22;18882;50.952;4.366;2023-01-24T17:35:05;2.70;99.90
32428;DHT22;18882;50.952;4.366;2023-01-24T17:38:30;2.70;99.90
32428;DHT22;18882;50.952;4.366;2023-01-24T17:45:37;2.60;99.90
32428;DHT22;18882;50.952;4.366;2023-01-24T17:55:25;2.60;99.90
32428;DHT22;18882;50.952;4.366;2023-01-24T17:57:51;2.50;99.90
32428;DHT22;18882;50.952;4.366;2023-01-24T18:00:53;2.40;99.90
32428;DHT22;18882;50.952;4.366;2023-01-24T18:04:22;2.40;99.90
32428;DHT22;18882;50.952;4.366;2023-01-24T18:07:07;2.30;99.90
32428;DHT22;18882;50.952;4.366;2023-01-24T18:10:24;2.30;99.90
32428;DHT22;18882;50.952;4.366;2023-01-24T18:14:10;2.50;99.90
32428;DHT22;18882;50.952;4.366;2023-01-24T18:21:23;2.70;99.90
32428;DHT22;18882;50.952;4.366;2023-01-24T18:25:03;2.80;99.90
32428;DHT22;18882;50.952;4.366;2023-01-24T18:29:09;2.90;99.90
32428;DHT22;18882;50.952;4.366;2023-01-24T18:32:03;3.00;99.90
32428;DHT22;18882;50.952;4.366;2023-01-24T18:39:03;3.10;99.90
32428;DHT22;18882;50.952;4.366;2023-01-24T18:42:30;2.90;99.90
32428;DHT22;18882;50.952;4.366;2023-01-24T18:45:16;3.00;99.90
32428;DHT22;18882;50.952;4.366;2023-01-24T18:48:47;3.10;99.90
32428;DHT22;18882;50.952;4.366;2023-01-24T18:51:25;3.00;99.90
32428;DHT22;18882;50.952;4.366;2023-01-24T18:53:55;3.20;99.90
32428;DHT22;18882;50.952;4.366;2023-01-24T18:57:35;3.20;99.90
32428;DHT22;18882;50.952;4.366;2023-01-24T19:36:34;2.80;99.90
32428;DHT22;18882;50.952;4.366;2023-01-24T19:40:05;2.60;99.90
32428;DHT22;18882;50.952;4.366;2023-01-24T19:43:15;2.70;99.90
32428;DHT22;18882;50.952;4.366;2023-01-24T19:53:57;2.80;99.90
32428;DHT22;18882;50.952;4.366;2023-01-24T20:01:16;2.60;99.90
32428;DHT22;18882;50.952;4.366;2023-01-24T20:04:48;2.60;99.90
32428;DHT22;18882;50.952;4.366;2023-01-24T20:07:29;2.60;99.90
32428;DHT22;18882;50.952;4.366;2023-01-24T20:10:59;2.80;99.90
32428;DHT22;18882;50.952;4.366;2023-01-24T20:13:56;2.80;99.90
32428;DHT22;18882;50.952;4.366;2023-01-24T20:16:24;2.90;99.90
32428;DHT22;18882;50.952;4.366;2023-01-24T20:19:53;2.90;99.90
32428;DHT22;18882;50.952;4.366;2023-01-24T20:23:05;3.10;99.90
32428;DHT22;18882;50.952;4.366;2023-01-24T20:32:53;2.40;99.90
32428;DHT22;18882;50.952;4.366;2023-01-24T20:35:34;2.40;99.90
32428;DHT22;18882;50.952;4.366;2023-01-24T20:38:00;2.50;99.90
32428;DHT22;18882;50.952;4.366;2023-01-24T20:40:28;2.70;99.90
32428;DHT22;18882;50.952;4.366;2023-01-24T20:43:24;2.70;99.90
32428;DHT22;18882;50.952;4.366;2023-01-24T20:45:50;2.80;99.90
32428;DHT22;18882;50.952;4.366;2023-01-24T20:48:17;2.80;99.90
32428;DHT22;18882;50.952;4.366;2023-01-24T20:51:52;2.80;99.90
32428;DHT22;18882;50.952;4.366;2023-01-24T20:55:03;2.80;99.90
32428;DHT22;18882;50.952;4.366;2023-01-24T20:58:37;2.80;99.90
32428;DHT22;18882;50.952;4.366;2023-01-24T21:16:28;2.20;99.90
32428;DHT22;18882;50.952;4.366;2023-01-24T21:19:05;2.20;99.90
32428;DHT22;18882;50.952;4.366;2023-01-24T21:21:54;2.20;99.90
32428;DHT22;18882;50.952;4.366;2023-01-24T21:24:37;2.30;99.90
32428;DHT22;18882;50.952;4.366;2023-01-24T21:27:21;2.20;99.90
32428;DHT22;18882;50.952;4.366;2023-01-24T21:30:17;2.00;99.90
32428;DHT22;18882;50.952;4.366;2023-01-24T21:32:58;1.90;99.90
32428;DHT22;18882;50.952;4.366;2023-01-24T21:35:29;2.10;99.90
32428;DHT22;18882;50.952;4.366;2023-01-24T21:38:02;2.20;99.90
32428;DHT22;18882;50.952;4.366;2023-01-24T21:40:40;2.30;99.90
32428;DHT22;18882;50.952;4.366;2023-01-24T21:43:30;2.30;99.90
32428;DHT22;18882;50.952;4.366;2023-01-24T21:46:08;2.30;99.90
32428;DHT22;18882;50.952;4.366;2023-01-24T21:48:56;2.60;99.90
32428;DHT22;18882;50.952;4.366;2023-01-24T21:51:44;2.80;99.90
32428;DHT22;18882;50.952;4.366;2023-01-24T21:57:04;3.10;99.90
32428;DHT22;18882;50.952;4.366;2023-01-24T21:59:49;3.20;99.90
32428;DHT22;18882;50.952;4.366;2023-01-24T22:02:33;3.20;99.90
32428;DHT22;18882;50.952;4.366;2023-01-24T22:05:11;3.00;99.90
32428;DHT22;18882;50.952;4.366;2023-01-24T22:07:39;2.90;99.90
32428;DHT22;18882;50.952;4.366;2023-01-24T22:10:08;3.00;99.90
32428;DHT22;18882;50.952;4.366;2023-01-24T22:12:40;2.80;99.90
32428;DHT22;18882;50.952;4.366;2023-01-24T22:15:14;2.90;99.90
32428;DHT22;18882;50.952;4.366;2023-01-24T22:17:43;2.80;99.90
32428;DHT22;18882;50.952;4.366;2023-01-24T22:20:17;2.50;99.90
32428;DHT22;18882;50.952;4.366;2023-01-24T22:23:14;2.30;99.90
32428;DHT22;18882;50.952;4.366;2023-01-24T22:25:54;2.30;99.90
32428;DHT22;18882;50.952;4.366;2023-01-24T23:52:09;1.50;99.90
32428;DHT22;18882;50.952;4.366;2023-01-24T23:54:56;1.50;99.90
